sensor_id;sensor_type;location;lat;lon;timestamp;pressure;altitude;pressure_sealevel;temperature;humidity
85545;BME280;75982;52.834;13.846;2024-02-14T00:01:08;101344.56;;;2.68;85.82
85545;BME280;75982;52.834;13.846;2024-02-14T00:03:35;101356.63;;;2.63;85.82
85545;BME280;75982;52.834;13.846;2024-02-14T00:06:03;101359.22;;;2.60;85.91
85545;BME280;75982;52.834;13.846;2024-02-14T00:08:30;101366.06;;;2.62;86.28
85545;BME280;75982;52.834;13.846;2024-02-14T00:10:57;101360.94;;;2.59;86.00
85545;BME280;75982;52.834;13.846;2024-02-14T00:13:23;101363.44;;;2.67;85.74
85545;BME280;75982;52.834;13.846;2024-02-14T00:15:51;101360.91;;;2.64;86.00
85545;BME280;75982;52.834;13.846;2024-02-14T00:18:18;101362.69;;;2.54;86.20
85545;BME280;75982;52.834;13.846;2024-02-14T00:20:45;101354.28;;;2.35;86.67
85545;BME280;75982;52.834;13.846;2024-02-14T00:23:11;101358.53;;;2.41;86.94
85545;BME280;75982;52.834;13.846;2024-02-14T00:25:38;101354.28;;;2.37;86.68
85545;BME280;75982;52.834;13.846;2024-02-14T00:28:05;101356.00;;;2.35;86.91
85545;BME280;75982;52.834;13.846;2024-02-14T00:30:32;101350.91;;;2.32;87.13
85545;BME280;75982;52.834;13.846;2024-02-14T00:33:00;101348.34;;;2.27;87.28
85545;BME280;75982;52.834;13.846;2024-02-14T00:35:27;101355.19;;;2.31;86.75
85545;BME280;75982;52.834;13.846;2024-02-14T00:37:54;101352.59;;;2.31;86.84
85545;BME280;75982;52.834;13.846;2024-02-14T00:40:21;101359.53;;;2.25;87.00
85545;BME280;75982;52.834;13.846;2024-02-14T00:42:47;101355.22;;;2.28;86.75
85545;BME280;75982;52.834;13.846;2024-02-14T00:45:14;101356.94;;;2.28;86.69
85545;BME280;75982;52.834;13.846;2024-02-14T00:47:41;101356.19;;;2.14;87.37
85545;BME280;75982;52.834;13.846;2024-02-14T00:50:09;101363.19;;;1.93;88.84
85545;BME280;75982;52.834;13.846;2024-02-14T00:52:36;101362.28;;;2.04;87.88
85545;BME280;75982;52.834;13.846;2024-02-14T00:55:03;101357.19;;;1.94;88.42
85545;BME280;75982;52.834;13.846;2024-02-14T00:57:32;101360.59;;;2.00;87.58
85545;BME280;75982;52.834;13.846;2024-02-14T00:59:59;101352.03;;;1.99;87.02
85545;BME280;75982;52.834;13.846;2024-02-14T01:02:26;101362.31;;;1.99;87.38
85545;BME280;75982;52.834;13.846;2024-02-14T01:04:53;101353.78;;;1.92;87.60
85545;BME280;75982;52.834;13.846;2024-02-14T01:07:21;101351.19;;;1.94;87.13
85545;BME280;75982;52.834;13.846;2024-02-14T01:09:48;101341.72;;;2.02;86.55
85545;BME280;75982;52.834;13.846;2024-02-14T01:12:14;101345.16;;;2.00;87.13
85545;BME280;75982;52.834;13.846;2024-02-14T01:14:41;101343.41;;;2.03;87.25
85545;BME280;75982;52.834;13.846;2024-02-14T01:17:08;101342.63;;;1.93;86.85
85545;BME280;75982;52.834;13.846;2024-02-14T01:19:35;101339.13;;;2.04;86.41
85545;BME280;75982;52.834;13.846;2024-02-14T01:22:02;101338.25;;;2.05;87.06
85545;BME280;75982;52.834;13.846;2024-02-14T01:24:30;101345.03;;;2.13;86.27
85545;BME280;75982;52.834;13.846;2024-02-14T01:26:57;101337.31;;;2.16;86.09
85545;BME280;75982;52.834;13.846;2024-02-14T01:29:24;101345.03;;;2.15;85.77
85545;BME280;75982;52.834;13.846;2024-02-14T01:31:50;101347.66;;;2.10;85.52
85545;BME280;75982;52.834;13.846;2024-02-14T01:34:17;101340.91;;;1.94;86.55
85545;BME280;75982;52.834;13.846;2024-02-14T01:36:45;101336.63;;;1.96;86.39
85545;BME280;75982;52.834;13.846;2024-02-14T01:39:12;101334.00;;;2.01;86.25
85545;BME280;75982;52.834;13.846;2024-02-14T01:41:44;101334.19;;;1.76;86.86
85545;BME280;75982;52.834;13.846;2024-02-14T01:44:11;101332.38;;;1.87;86.14
85545;BME280;75982;52.834;13.846;2024-02-14T01:46:38;101330.69;;;1.82;85.87
85545;BME280;75982;52.834;13.846;2024-02-14T01:49:04;101330.03;;;1.54;87.89
85545;BME280;75982;52.834;13.846;2024-02-14T01:51:31;101328.28;;;1.61;86.88
85545;BME280;75982;52.834;13.846;2024-02-14T01:53:58;101328.28;;;1.61;87.86
85545;BME280;75982;52.834;13.846;2024-02-14T01:56:25;101311.06;;;1.70;87.37
85545;BME280;75982;52.834;13.846;2024-02-14T01:58:53;101318.81;;;1.69;87.08
85545;BME280;75982;52.834;13.846;2024-02-14T02:01:21;101316.22;;;1.70;86.89
85545;BME280;75982;52.834;13.846;2024-02-14T02:03:47;101317.94;;;1.67;87.11
85545;BME280;75982;52.834;13.846;2024-02-14T02:06:15;101322.19;;;1.77;86.73
85545;BME280;75982;52.834;13.846;2024-02-14T02:08:42;101322.22;;;1.68;87.50
85545;BME280;75982;52.834;13.846;2024-02-14T02:11:09;101315.44;;;1.62;87.88
85545;BME280;75982;52.834;13.846;2024-02-14T02:13:36;101312.00;;;1.62;88.02
85545;BME280;75982;52.834;13.846;2024-02-14T02:16:05;101315.38;;;1.67;87.69
85545;BME280;75982;52.834;13.846;2024-02-14T02:18:32;101306.81;;;1.66;88.42
85545;BME280;75982;52.834;13.846;2024-02-14T02:20:58;101311.06;;;1.72;88.43
85545;BME280;75982;52.834;13.846;2024-02-14T02:23:27;101310.19;;;1.74;87.95
85545;BME280;75982;52.834;13.846;2024-02-14T02:25:53;101310.22;;;1.71;88.37
85545;BME280;75982;52.834;13.846;2024-02-14T02:28:20;101309.31;;;1.80;88.00
85545;BME280;75982;52.834;13.846;2024-02-14T02:30:46;101315.28;;;1.82;87.53
85545;BME280;75982;52.834;13.846;2024-02-14T02:33:13;101311.09;;;1.69;87.75
85545;BME280;75982;52.834;13.846;2024-02-14T02:35:41;101309.28;;;1.83;87.84
85545;BME280;75982;52.834;13.846;2024-02-14T02:38:08;101316.19;;;1.76;87.43
85545;BME280;75982;52.834;13.846;2024-02-14T02:40:36;101311.94;;;1.71;87.83
85545;BME280;75982;52.834;13.846;2024-02-14T02:43:03;101314.44;;;1.78;87.53
85545;BME280;75982;52.834;13.846;2024-02-14T02:45:30;101313.63;;;1.76;87.26
85545;BME280;75982;52.834;13.846;2024-02-14T02:47:57;101307.63;;;1.77;88.20
85545;BME280;75982;52.834;13.846;2024-02-14T02:50:23;101319.63;;;1.74;88.21
85545;BME280;75982;52.834;13.846;2024-02-14T02:52:50;101314.41;;;1.87;87.82
85545;BME280;75982;52.834;13.846;2024-02-14T02:55:17;101307.63;;;1.76;87.87
85545;BME280;75982;52.834;13.846;2024-02-14T02:57:45;101306.75;;;1.75;88.00
85545;BME280;75982;52.834;13.846;2024-02-14T03:00:13;101303.28;;;1.82;87.57
85545;BME280;75982;52.834;13.846;2024-02-14T03:02:40;101310.19;;;1.77;87.56
85545;BME280;75982;52.834;13.846;2024-02-14T03:05:07;101303.28;;;1.84;87.55
85545;BME280;75982;52.834;13.846;2024-02-14T03:07:34;101302.41;;;1.88;87.54
85545;BME280;75982;52.834;13.846;2024-02-14T03:10:01;101294.81;;;1.70;87.37
85545;BME280;75982;52.834;13.846;2024-02-14T03:12:27;101283.78;;;1.54;87.44
85545;BME280;75982;52.834;13.846;2024-02-14T03:14:55;101286.38;;;1.50;87.71
85545;BME280;75982;52.834;13.846;2024-02-14T03:17:22;101291.56;;;1.40;87.75
85545;BME280;75982;52.834;13.846;2024-02-14T03:19:49;101299.38;;;1.28;88.17
85545;BME280;75982;52.834;13.846;2024-02-14T03:22:16;101290.00;;;1.11;88.37
85545;BME280;75982;52.834;13.846;2024-02-14T03:24:42;101284.03;;;1.13;89.48
85545;BME280;75982;52.834;13.846;2024-02-14T03:27:09;101285.63;;;1.32;88.74
85545;BME280;75982;52.834;13.846;2024-02-14T03:29:36;101288.91;;;1.56;87.09
85545;BME280;75982;52.834;13.846;2024-02-14T03:32:04;101287.22;;;1.52;86.76
85545;BME280;75982;52.834;13.846;2024-02-14T03:34:31;101282.13;;;1.45;87.01
85545;BME280;75982;52.834;13.846;2024-02-14T03:36:58;101287.22;;;1.53;86.85
85545;BME280;75982;52.834;13.846;2024-02-14T03:39:25;101282.28;;;1.18;87.73
85545;BME280;75982;52.834;13.846;2024-02-14T03:41:51;101284.78;;;1.29;88.02
85545;BME280;75982;52.834;13.846;2024-02-14T03:44:18;101272.75;;;1.38;87.98
85545;BME280;75982;52.834;13.846;2024-02-14T03:46:44;101266.00;;;1.18;88.77
85545;BME280;75982;52.834;13.846;2024-02-14T03:49:12;101269.50;;;1.09;88.76
85545;BME280;75982;52.834;13.846;2024-02-14T03:51:39;101260.97;;;0.95;90.08
85545;BME280;75982;52.834;13.846;2024-02-14T03:54:06;101263.56;;;0.95;89.90
85545;BME280;75982;52.834;13.846;2024-02-14T03:56:33;101260.16;;;0.90;90.57
85545;BME280;75982;52.834;13.846;2024-02-14T03:58:59;101261.91;;;0.85;90.29
85545;BME280;75982;52.834;13.846;2024-02-14T04:01:26;101259.38;;;0.74;90.83
85545;BME280;75982;52.834;13.846;2024-02-14T04:03:53;101261.94;;;0.74;90.98
85545;BME280;75982;52.834;13.846;2024-02-14T04:06:21;101260.19;;;0.84;91.40
85545;BME280;75982;52.834;13.846;2024-02-14T04:08:47;101260.91;;;1.12;90.32
85545;BME280;75982;52.834;13.846;2024-02-14T04:11:14;101263.53;;;1.00;89.52
85545;BME280;75982;52.834;13.846;2024-02-14T04:13:41;101261.78;;;1.12;89.85
85545;BME280;75982;52.834;13.846;2024-02-14T04:16:07;101260.13;;;1.01;90.16
85545;BME280;75982;52.834;13.846;2024-02-14T04:18:34;101253.25;;;1.09;90.37
85545;BME280;75982;52.834;13.846;2024-02-14T04:21:01;101253.19;;;1.19;89.17
85545;BME280;75982;52.834;13.846;2024-02-14T04:23:29;101255.72;;;1.24;89.21
85545;BME280;75982;52.834;13.846;2024-02-14T04:25:56;101249.66;;;1.32;88.86
85545;BME280;75982;52.834;13.846;2024-02-14T04:28:22;101260.84;;;1.25;89.18
85545;BME280;75982;52.834;13.846;2024-02-14T04:30:49;101261.72;;;1.18;89.77
85545;BME280;75982;52.834;13.846;2024-02-14T04:33:16;101262.59;;;1.16;90.57
85545;BME280;75982;52.834;13.846;2024-02-14T04:35:42;101265.94;;;1.31;89.65
85545;BME280;75982;52.834;13.846;2024-02-14T04:38:09;101255.88;;;0.98;90.62
85545;BME280;75982;52.834;13.846;2024-02-14T04:40:37;101253.31;;;0.92;90.66
85545;BME280;75982;52.834;13.846;2024-02-14T04:43:04;101246.50;;;0.85;90.58
85545;BME280;75982;52.834;13.846;2024-02-14T04:45:31;101252.44;;;0.98;90.82
85545;BME280;75982;52.834;13.846;2024-02-14T04:47:58;101248.88;;;1.18;90.38
85545;BME280;75982;52.834;13.846;2024-02-14T04:50:24;101238.59;;;1.24;90.01
85545;BME280;75982;52.834;13.846;2024-02-14T04:52:51;101232.69;;;1.12;90.44
85545;BME280;75982;52.834;13.846;2024-02-14T04:55:18;101232.59;;;1.22;90.21
85545;BME280;75982;52.834;13.846;2024-02-14T04:57:46;101225.84;;;1.12;90.78
85545;BME280;75982;52.834;13.846;2024-02-14T05:00:13;101219.75;;;1.28;90.61
85545;BME280;75982;52.834;13.846;2024-02-14T05:02:40;101231.66;;;1.38;90.65
85545;BME280;75982;52.834;13.846;2024-02-14T05:05:07;101237.63;;;1.43;89.83
85545;BME280;75982;52.834;13.846;2024-02-14T05:07:34;101240.94;;;1.56;89.60
85545;BME280;75982;52.834;13.846;2024-02-14T05:10:00;101249.41;;;1.72;88.82
85545;BME280;75982;52.834;13.846;2024-02-14T05:12:27;101255.22;;;1.93;88.10
85545;BME280;75982;52.834;13.846;2024-02-14T05:14:55;101249.13;;;2.05;87.35
85545;BME280;75982;52.834;13.846;2024-02-14T05:17:22;101253.47;;;1.97;87.68
85545;BME280;75982;52.834;13.846;2024-02-14T05:19:48;101254.38;;;1.91;88.17
85545;BME280;75982;52.834;13.846;2024-02-14T05:22:15;101245.78;;;1.96;87.95
85545;BME280;75982;52.834;13.846;2024-02-14T05:24:48;101249.06;;;2.08;87.61
85545;BME280;75982;52.834;13.846;2024-02-14T05:27:15;101239.66;;;2.09;87.68
85545;BME280;75982;52.834;13.846;2024-02-14T05:29:44;101239.63;;;2.15;87.56
85545;BME280;75982;52.834;13.846;2024-02-14T05:32:12;101235.25;;;2.20;87.14
85545;BME280;75982;52.834;13.846;2024-02-14T05:34:38;101235.28;;;2.18;87.27
85545;BME280;75982;52.834;13.846;2024-02-14T05:37:05;101233.66;;;2.11;87.37
85545;BME280;75982;52.834;13.846;2024-02-14T05:39:32;101234.69;;;1.90;88.51
85545;BME280;75982;52.834;13.846;2024-02-14T05:41:59;101242.59;;;1.65;88.63
85545;BME280;75982;52.834;13.846;2024-02-14T05:44:25;101236.56;;;1.72;89.01
85545;BME280;75982;52.834;13.846;2024-02-14T05:46:52;101221.09;;;1.75;88.34
85545;BME280;75982;52.834;13.846;2024-02-14T05:49:21;101224.63;;;1.65;88.53
85545;BME280;75982;52.834;13.846;2024-02-14T05:51:48;101218.56;;;1.73;89.18
85545;BME280;75982;52.834;13.846;2024-02-14T05:54:14;101213.41;;;1.72;88.96
85545;BME280;75982;52.834;13.846;2024-02-14T05:56:41;101211.50;;;1.95;88.18
85545;BME280;75982;52.834;13.846;2024-02-14T05:59:08;101215.09;;;1.74;88.83
85545;BME280;75982;52.834;13.846;2024-02-14T06:01:34;101210.81;;;1.76;89.11
85545;BME280;75982;52.834;13.846;2024-02-14T06:04:01;101211.66;;;1.80;89.33
85545;BME280;75982;52.834;13.846;2024-02-14T06:06:29;101212.38;;;1.96;88.60
85545;BME280;75982;52.834;13.846;2024-02-14T06:08:56;101210.75;;;1.82;89.76
85545;BME280;75982;52.834;13.846;2024-02-14T06:11:23;101209.75;;;1.99;89.58
85545;BME280;75982;52.834;13.846;2024-02-14T06:13:49;101216.72;;;1.86;89.61
85545;BME280;75982;52.834;13.846;2024-02-14T06:16:16;101195.09;;;2.08;89.23
85545;BME280;75982;52.834;13.846;2024-02-14T06:18:43;101201.25;;;1.90;89.94
85545;BME280;75982;52.834;13.846;2024-02-14T06:21:10;101206.34;;;1.98;89.84
85545;BME280;75982;52.834;13.846;2024-02-14T06:23:38;101208.91;;;1.97;90.81
85545;BME280;75982;52.834;13.846;2024-02-14T06:26:05;101204.69;;;1.92;91.02
85545;BME280;75982;52.834;13.846;2024-02-14T06:28:32;101203.84;;;1.89;91.34
85545;BME280;75982;52.834;13.846;2024-02-14T06:30:58;101197.72;;;2.01;91.25
85545;BME280;75982;52.834;13.846;2024-02-14T06:33:25;101198.69;;;1.90;92.08
85545;BME280;75982;52.834;13.846;2024-02-14T06:35:52;101203.75;;;1.97;92.15
85545;BME280;75982;52.834;13.846;2024-02-14T06:38:19;101214.91;;;1.99;91.70
85545;BME280;75982;52.834;13.846;2024-02-14T06:40:47;101202.06;;;1.97;91.59
85545;BME280;75982;52.834;13.846;2024-02-14T06:43:14;101206.41;;;1.90;91.72
85545;BME280;75982;52.834;13.846;2024-02-14T06:45:40;101202.97;;;1.90;92.09
85545;BME280;75982;52.834;13.846;2024-02-14T06:48:07;101205.28;;;2.17;91.16
85545;BME280;75982;52.834;13.846;2024-02-14T06:50:34;101199.41;;;2.05;91.18
85545;BME280;75982;52.834;13.846;2024-02-14T06:53:01;101197.69;;;2.07;91.37
85545;BME280;75982;52.834;13.846;2024-02-14T06:55:28;101195.09;;;2.08;91.29
85545;BME280;75982;52.834;13.846;2024-02-14T06:57:56;101195.97;;;2.07;91.57
85545;BME280;75982;52.834;13.846;2024-02-14T07:00:23;101196.84;;;2.06;91.58
85545;BME280;75982;52.834;13.846;2024-02-14T07:02:50;101187.25;;;2.22;91.05
85545;BME280;75982;52.834;13.846;2024-02-14T07:05:16;101194.91;;;2.25;91.10
85545;BME280;75982;52.834;13.846;2024-02-14T07:07:43;101190.56;;;2.31;90.99
85545;BME280;75982;52.834;13.846;2024-02-14T07:10:11;101188.78;;;2.36;91.20
85545;BME280;75982;52.834;13.846;2024-02-14T07:12:38;101186.19;;;2.41;91.18
85545;BME280;75982;52.834;13.846;2024-02-14T07:15:06;101183.66;;;2.36;91.25
85545;BME280;75982;52.834;13.846;2024-02-14T07:17:33;101181.22;;;2.24;92.15
85545;BME280;75982;52.834;13.846;2024-02-14T07:20:01;101171.88;;;2.16;92.43
85545;BME280;75982;52.834;13.846;2024-02-14T07:22:28;101181.75;;;2.51;91.68
85545;BME280;75982;52.834;13.846;2024-02-14T07:24:54;101183.56;;;2.44;91.36
85545;BME280;75982;52.834;13.846;2024-02-14T07:27:21;101196.06;;;2.73;90.35
85545;BME280;75982;52.834;13.846;2024-02-14T07:29:48;101192.63;;;2.75;89.92
85545;BME280;75982;52.834;13.846;2024-02-14T07:32:17;101201.03;;;2.88;89.91
85545;BME280;75982;52.834;13.846;2024-02-14T07:34:43;101195.91;;;2.86;89.79
85545;BME280;75982;52.834;13.846;2024-02-14T07:37:10;101199.16;;;2.99;89.26
85545;BME280;75982;52.834;13.846;2024-02-14T07:39:37;101183.84;;;2.88;89.69
85545;BME280;75982;52.834;13.846;2024-02-14T07:42:04;101182.66;;;3.12;89.69
85545;BME280;75982;52.834;13.846;2024-02-14T07:44:31;101179.19;;;3.16;89.76
85545;BME280;75982;52.834;13.846;2024-02-14T07:46:58;101182.28;;;3.36;89.37
85545;BME280;75982;52.834;13.846;2024-02-14T07:49:31;101171.78;;;3.49;88.49
85545;BME280;75982;52.834;13.846;2024-02-14T07:51:57;101180.25;;;3.58;88.72
85545;BME280;75982;52.834;13.846;2024-02-14T07:54:24;101180.13;;;3.63;87.46
85545;BME280;75982;52.834;13.846;2024-02-14T07:56:51;101177.69;;;3.55;87.58
85545;BME280;75982;52.834;13.846;2024-02-14T07:59:17;101174.97;;;3.66;87.13
85545;BME280;75982;52.834;13.846;2024-02-14T08:01:44;101179.06;;;3.76;86.95
85545;BME280;75982;52.834;13.846;2024-02-14T08:04:11;101188.41;;;3.81;86.90
85545;BME280;75982;52.834;13.846;2024-02-14T08:06:39;101192.78;;;3.78;87.18
85545;BME280;75982;52.834;13.846;2024-02-14T08:09:06;101193.69;;;3.75;86.76
85545;BME280;75982;52.834;13.846;2024-02-14T08:11:32;101189.38;;;3.77;87.05
85545;BME280;75982;52.834;13.846;2024-02-14T08:13:59;101190.03;;;3.88;85.99
85545;BME280;75982;52.834;13.846;2024-02-14T08:16:26;101189.06;;;3.94;86.27
85545;BME280;75982;52.834;13.846;2024-02-14T08:18:53;101182.84;;;4.04;85.19
85545;BME280;75982;52.834;13.846;2024-02-14T08:21:19;101175.88;;;4.11;85.34
85545;BME280;75982;52.834;13.846;2024-02-14T08:23:48;101181.63;;;4.23;85.08
85545;BME280;75982;52.834;13.846;2024-02-14T08:26:15;101187.19;;;4.48;85.13
85545;BME280;75982;52.834;13.846;2024-02-14T08:28:42;101174.94;;;4.58;84.23
85545;BME280;75982;52.834;13.846;2024-02-14T08:31:12;101174.41;;;4.42;83.36
85545;BME280;75982;52.834;13.846;2024-02-14T08:33:39;101163.97;;;4.47;84.48
85545;BME280;75982;52.834;13.846;2024-02-14T08:36:06;101163.97;;;4.48;83.65
85545;BME280;75982;52.834;13.846;2024-02-14T08:38:33;101159.75;;;4.43;83.86
85545;BME280;75982;52.834;13.846;2024-02-14T08:41:02;101161.59;;;4.38;83.58
85545;BME280;75982;52.834;13.846;2024-02-14T08:43:28;101149.28;;;4.50;83.95
85545;BME280;75982;52.834;13.846;2024-02-14T08:45:55;101152.91;;;4.42;84.53
85545;BME280;75982;52.834;13.846;2024-02-14T08:48:22;101154.28;;;4.59;82.66
85545;BME280;75982;52.834;13.846;2024-02-14T08:50:49;101156.94;;;4.55;82.98
85545;BME280;75982;52.834;13.846;2024-02-14T08:53:16;101152.41;;;4.66;82.83
85545;BME280;75982;52.834;13.846;2024-02-14T08:55:42;101147.22;;;4.67;83.00
85545;BME280;75982;52.834;13.846;2024-02-14T08:58:10;101155.59;;;4.78;83.01
85545;BME280;75982;52.834;13.846;2024-02-14T09:00:37;101148.78;;;4.74;82.65
85545;BME280;75982;52.834;13.846;2024-02-14T09:03:04;101145.09;;;4.84;82.13
85545;BME280;75982;52.834;13.846;2024-02-14T09:05:31;101145.88;;;4.88;82.15
85545;BME280;75982;52.834;13.846;2024-02-14T09:07:59;101138.97;;;4.90;81.92
85545;BME280;75982;52.834;13.846;2024-02-14T09:10:26;101144.66;;;5.06;81.88
85545;BME280;75982;52.834;13.846;2024-02-14T09:12:53;101145.47;;;5.06;81.37
85545;BME280;75982;52.834;13.846;2024-02-14T09:15:21;101147.16;;;5.09;82.00
85545;BME280;75982;52.834;13.846;2024-02-14T09:17:48;101144.59;;;5.07;81.89
85545;BME280;75982;52.834;13.846;2024-02-14T09:20:14;101138.47;;;5.11;81.51
85545;BME280;75982;52.834;13.846;2024-02-14T09:22:41;101128.91;;;5.15;81.58
85545;BME280;75982;52.834;13.846;2024-02-14T09:25:08;101130.34;;;5.28;81.98
85545;BME280;75982;52.834;13.846;2024-02-14T09:27:35;101129.25;;;5.37;81.44
85545;BME280;75982;52.834;13.846;2024-02-14T09:30:02;101130.00;;;5.42;80.19
85545;BME280;75982;52.834;13.846;2024-02-14T09:32:30;101129.91;;;5.45;80.64
85545;BME280;75982;52.834;13.846;2024-02-14T09:34:58;101133.81;;;5.61;80.44
85545;BME280;75982;52.834;13.846;2024-02-14T09:37:25;101137.19;;;5.63;80.11
85545;BME280;75982;52.834;13.846;2024-02-14T09:39:51;101127.50;;;5.72;80.89
85545;BME280;75982;52.834;13.846;2024-02-14T09:42:25;101136.50;;;5.56;80.78
85545;BME280;75982;52.834;13.846;2024-02-14T09:44:58;101141.56;;;5.61;81.71
85545;BME280;75982;52.834;13.846;2024-02-14T09:47:27;101134.69;;;5.60;82.46
85545;BME280;75982;52.834;13.846;2024-02-14T09:49:58;101133.72;;;5.65;81.85
85545;BME280;75982;52.834;13.846;2024-02-14T09:52:25;101136.38;;;5.62;82.53
85545;BME280;75982;52.834;13.846;2024-02-14T09:54:53;101135.59;;;5.59;83.31
85545;BME280;75982;52.834;13.846;2024-02-14T09:57:21;101140.63;;;5.63;83.38
85545;BME280;75982;52.834;13.846;2024-02-14T09:59:49;101141.47;;;5.65;83.82
85545;BME280;75982;52.834;13.846;2024-02-14T10:02:17;101134.94;;;5.85;83.18
85545;BME280;75982;52.834;13.846;2024-02-14T10:04:43;101135.16;;;5.75;83.40
85545;BME280;75982;52.834;13.846;2024-02-14T10:07:11;101133.09;;;5.90;83.78
85545;BME280;75982;52.834;13.846;2024-02-14T10:09:41;101131.25;;;5.95;83.75
85545;BME280;75982;52.834;13.846;2024-02-14T10:12:08;101131.16;;;5.98;84.52
85545;BME280;75982;52.834;13.846;2024-02-14T10:14:35;101127.25;;;6.14;84.07
85545;BME280;75982;52.834;13.846;2024-02-14T10:17:02;101127.06;;;6.21;84.48
85545;BME280;75982;52.834;13.846;2024-02-14T10:19:29;101130.94;;;6.36;84.04
85545;BME280;75982;52.834;13.846;2024-02-14T10:21:56;101128.38;;;6.36;83.71
85545;BME280;75982;52.834;13.846;2024-02-14T10:24:26;101129.97;;;6.40;84.43
85545;BME280;75982;52.834;13.846;2024-02-14T10:26:53;101129.13;;;6.40;83.51
85545;BME280;75982;52.834;13.846;2024-02-14T10:29:20;101120.69;;;6.62;83.02
85545;BME280;75982;52.834;13.846;2024-02-14T10:31:47;101123.47;;;6.56;82.77
85545;BME280;75982;52.834;13.846;2024-02-14T10:34:14;101123.34;;;6.61;83.13
85545;BME280;75982;52.834;13.846;2024-02-14T10:36:42;101121.63;;;6.60;83.20
85545;BME280;75982;52.834;13.846;2024-02-14T10:39:11;101118.69;;;6.72;83.25
85545;BME280;75982;52.834;13.846;2024-02-14T10:41:39;101115.38;;;6.67;83.19
85545;BME280;75982;52.834;13.846;2024-02-14T10:44:06;101116.66;;;6.82;83.39
85545;BME280;75982;52.834;13.846;2024-02-14T10:46:35;101110.56;;;7.10;82.21
85545;BME280;75982;52.834;13.846;2024-02-14T10:49:04;101104.72;;;7.04;81.72
85545;BME280;75982;52.834;13.846;2024-02-14T10:51:32;101101.59;;;6.94;82.71
85545;BME280;75982;52.834;13.846;2024-02-14T10:54:00;101103.53;;;7.14;81.60
85545;BME280;75982;52.834;13.846;2024-02-14T10:56:30;101104.72;;;7.04;80.29
85545;BME280;75982;52.834;13.846;2024-02-14T10:59:01;101099.13;;;7.17;82.18
85545;BME280;75982;52.834;13.846;2024-02-14T11:01:29;101103.88;;;7.03;82.25
85545;BME280;75982;52.834;13.846;2024-02-14T11:03:58;101099.25;;;7.13;81.09
85545;BME280;75982;52.834;13.846;2024-02-14T11:06:25;101095.56;;;7.20;81.34
85545;BME280;75982;52.834;13.846;2024-02-14T11:08:56;101100.38;;;7.04;81.29
85545;BME280;75982;52.834;13.846;2024-02-14T11:11:24;101101.41;;;6.99;81.47
85545;BME280;75982;52.834;13.846;2024-02-14T11:13:52;101092.47;;;7.09;81.39
85545;BME280;75982;52.834;13.846;2024-02-14T11:16:25;101087.41;;;7.06;81.87
85545;BME280;75982;52.834;13.846;2024-02-14T11:18:52;101083.47;;;7.20;81.45
85545;BME280;75982;52.834;13.846;2024-02-14T11:21:19;101088.25;;;7.33;81.26
85545;BME280;75982;52.834;13.846;2024-02-14T11:23:52;101076.78;;;7.40;81.55
85545;BME280;75982;52.834;13.846;2024-02-14T11:26:19;101087.66;;;7.24;81.28
85545;BME280;75982;52.834;13.846;2024-02-14T11:28:46;101083.81;;;7.61;81.05
85545;BME280;75982;52.834;13.846;2024-02-14T11:31:16;101083.91;;;7.83;81.19
85545;BME280;75982;52.834;13.846;2024-02-14T11:33:44;101084.00;;;7.81;80.63
85545;BME280;75982;52.834;13.846;2024-02-14T11:36:12;101085.53;;;7.62;80.30
85545;BME280;75982;52.834;13.846;2024-02-14T11:38:40;101083.50;;;7.70;81.79
85545;BME280;75982;52.834;13.846;2024-02-14T11:41:08;101079.09;;;7.72;81.03
85545;BME280;75982;52.834;13.846;2024-02-14T11:43:36;101082.13;;;7.85;81.15
85545;BME280;75982;52.834;13.846;2024-02-14T11:46:04;101073.09;;;7.95;80.65
85545;BME280;75982;52.834;13.846;2024-02-14T11:48:31;101072.06;;;8.00;80.71
85545;BME280;75982;52.834;13.846;2024-02-14T11:50:59;101071.41;;;7.94;80.79
85545;BME280;75982;52.834;13.846;2024-02-14T11:53:26;101075.13;;;7.87;81.23
85545;BME280;75982;52.834;13.846;2024-02-14T11:55:55;101072.47;;;7.88;83.25
85545;BME280;75982;52.834;13.846;2024-02-14T11:58:22;101071.00;;;7.81;84.19
85545;BME280;75982;52.834;13.846;2024-02-14T12:00:48;101071.09;;;7.78;84.14
85545;BME280;75982;52.834;13.846;2024-02-14T12:03:17;101067.69;;;7.78;85.58
85545;BME280;75982;52.834;13.846;2024-02-14T12:05:44;101065.97;;;7.77;85.67
85545;BME280;75982;52.834;13.846;2024-02-14T12:08:14;101068.47;;;7.55;86.16
85545;BME280;75982;52.834;13.846;2024-02-14T12:10:42;101064.22;;;7.52;87.26
85545;BME280;75982;52.834;13.846;2024-02-14T12:13:10;101075.59;;;7.48;87.65
85545;BME280;75982;52.834;13.846;2024-02-14T12:15:38;101068.69;;;7.73;86.20
85545;BME280;75982;52.834;13.846;2024-02-14T12:18:05;101073.19;;;7.68;87.48
85545;BME280;75982;52.834;13.846;2024-02-14T12:20:32;101077.13;;;7.79;86.95
85545;BME280;75982;52.834;13.846;2024-02-14T12:22:58;101073.03;;;7.73;87.07
85545;BME280;75982;52.834;13.846;2024-02-14T12:25:26;101068.69;;;7.73;87.20
85545;BME280;75982;52.834;13.846;2024-02-14T12:27:53;101071.31;;;7.72;88.26
85545;BME280;75982;52.834;13.846;2024-02-14T12:30:20;101069.41;;;7.77;87.79
85545;BME280;75982;52.834;13.846;2024-02-14T12:32:57;101069.31;;;7.80;87.18
85545;BME280;75982;52.834;13.846;2024-02-14T12:35:24;101064.06;;;7.82;87.33
85545;BME280;75982;52.834;13.846;2024-02-14T12:37:51;101070.19;;;7.79;88.20
85545;BME280;75982;52.834;13.846;2024-02-14T12:40:18;101071.88;;;7.82;87.90
85545;BME280;75982;52.834;13.846;2024-02-14T12:42:46;101070.59;;;7.68;88.36
85545;BME280;75982;52.834;13.846;2024-02-14T12:45:13;101066.03;;;7.75;88.42
85545;BME280;75982;52.834;13.846;2024-02-14T12:47:41;101066.97;;;7.72;88.31
85545;BME280;75982;52.834;13.846;2024-02-14T12:50:08;101065.34;;;7.70;89.17